createdAt,value
2023-06-15T00:05:54.820Z,3.7
2023-06-15T00:21:28.789Z,3.6
2023-06-15T00:37:02.887Z,4.8
2023-06-15T00:52:36.951Z,4.3
2023-06-15T01:08:10.992Z,4.3
2023-06-15T01:23:45.146Z,4.7
2023-06-15T01:39:19.498Z,3.8
2023-06-15T01:54:53.652Z,5.1
2023-06-15T02:10:27.721Z,3.7
2023-06-15T02:26:01.808Z,5.3
2023-06-15T02:41:35.894Z,4.9
2023-06-15T02:57:09.965Z,5
2023-06-15T03:12:44.021Z,4.9
2023-06-15T03:28:18.138Z,5
2023-06-15T03:43:52.205Z,5.7
2023-06-15T03:59:26.936Z,4.3
2023-06-15T04:15:01.112Z,4.9
2023-06-15T04:30:35.238Z,5.2
2023-06-15T04:46:09.358Z,6.8
2023-06-15T05:01:43.508Z,6.4
2023-06-15T05:17:17.670Z,8.2
2023-06-15T05:32:52.055Z,5.7
2023-06-15T05:48:26.402Z,5.7
2023-06-15T06:04:01.848Z,6.8
2023-06-15T06:19:36.031Z,7.2
2023-06-15T06:35:10.181Z,5.9
2023-06-15T06:50:44.429Z,5.1
2023-06-15T07:06:18.872Z,5.9
2023-06-15T07:21:53.273Z,5.1
2023-06-15T07:37:28.300Z,4.4
2023-06-15T07:53:02.706Z,4.2
2023-06-15T08:08:37.065Z,3.5
2023-06-15T08:24:11.502Z,3.3
2023-06-15T08:39:46.233Z,3.4
2023-06-15T08:55:20.929Z,3.1
2023-06-15T09:10:55.377Z,3.1
2023-06-15T09:26:29.756Z,3
2023-06-15T09:42:04.108Z,2.6
2023-06-15T09:57:38.534Z,2.7
2023-06-15T10:13:12.920Z,2.7
2023-06-15T10:28:47.180Z,2.9
2023-06-15T10:44:23.023Z,3.6
2023-06-15T10:59:58.324Z,2.5
2023-06-15T11:15:33.056Z,2.5
2023-06-15T11:31:08.229Z,2.9
2023-06-15T11:46:43.404Z,2.4
2023-06-15T12:02:17.702Z,2.6
2023-06-15T12:17:52.291Z,2.6
2023-06-15T12:33:27.022Z,2.1
2023-06-15T12:49:01.686Z,2.1
2023-06-15T13:04:36.275Z,3.4
2023-06-15T13:20:11.131Z,2.9
2023-06-15T13:35:45.752Z,2.6
2023-06-15T13:51:20.245Z,3.5
2023-06-15T14:06:54.546Z,2
2023-06-15T14:22:29.059Z,2.9
2023-06-15T14:38:03.401Z,2.8
2023-06-15T14:53:37.711Z,3
2023-06-15T15:09:12.060Z,2.3
2023-06-15T15:24:46.505Z,2.5
2023-06-15T15:40:21.013Z,2.6
2023-06-15T15:55:55.632Z,3.6
2023-06-15T16:11:29.989Z,3
2023-06-15T16:27:04.386Z,2.3
2023-06-15T16:42:38.715Z,3.5
2023-06-15T16:58:13.005Z,2.8
2023-06-15T17:13:47.527Z,2.6
2023-06-15T17:29:21.803Z,2.9
2023-06-15T17:44:56.156Z,3.1
2023-06-15T18:00:30.454Z,3.9
2023-06-15T18:16:04.854Z,3.7
2023-06-15T18:31:39.546Z,3.9
2023-06-15T18:47:13.820Z,2.8
2023-06-15T19:02:48.246Z,3
2023-06-15T19:18:23.100Z,3.3
2023-06-15T19:33:57.372Z,2.9
2023-06-15T19:49:31.726Z,3.2
2023-06-15T20:05:06.060Z,2.9
2023-06-15T20:20:40.348Z,5.4
2023-06-15T20:36:15.062Z,4.4
2023-06-15T20:51:49.475Z,2.9
2023-06-15T21:07:23.693Z,2.9
2023-06-15T21:22:57.917Z,2.6
2023-06-15T21:38:32.142Z,3.8
2023-06-15T21:54:06.381Z,3
2023-06-15T22:09:40.548Z,3.3
2023-06-15T22:25:14.740Z,2.9
2023-06-15T22:40:48.982Z,3.8
2023-06-15T22:56:23.178Z,4
2023-06-15T23:11:57.935Z,3.8
2023-06-15T23:27:32.284Z,4.3
2023-06-15T23:43:06.429Z,4.3
2023-06-15T23:58:40.856Z,4
